Time;durP1;ratioP1;P1;durP2;ratioP2;P2;SDS_P1;SDS_P2;PMS_P1;PMS_P2;Temp;Humidity;BMP_temperature;BMP_pressure;BME280_temperature;BME280_humidity;BME280_pressure;Samples;Min_cycle;Max_cycle;Signal;HPM_P1;HPM_P2
2023/05/12 03:56:37;;;;;;;8.32;6.25;;;8.10;99.90;;;;;;5588661;22;20552;-73
2023/05/12 03:59:03;;;;;;;5.88;5.18;;;8.00;99.90;;;;;;5034581;28;20267;-73
2023/05/12 04:01:30;;;;;;;6.97;6.22;;;8.10;99.90;;;;;;5034808;28;20232;-73
2023/05/12 04:03:57;;;;;;;15.05;10.20;;;8.10;99.90;;;;;;5034629;28;20255;-72
2023/05/12 04:06:24;;;;;;;9.48;8.48;;;8.20;99.90;;;;;;5034437;28;20227;-69
2023/05/12 04:08:50;;;;;;;10.68;8.45;;;8.20;99.90;;;;;;5034853;28;20604;-70
2023/05/12 04:11:17;;;;;;;10.93;7.85;;;8.20;99.90;;;;;;5035139;28;20209;-70
2023/05/12 04:13:45;;;;;;;7.53;6.40;;;8.20;99.90;;;;;;5034459;28;20205;-73
2023/05/12 04:16:12;;;;;;;7.75;6.65;;;8.20;99.90;;;;;;5033738;28;20700;-73
2023/05/12 04:18:38;;;;;;;10.18;8.50;;;8.20;99.90;;;;;;5034163;28;20201;-73
2023/05/12 04:21:05;;;;;;;8.52;6.57;;;8.20;99.90;;;;;;5034431;28;20197;-73
2023/05/12 04:23:32;;;;;;;8.65;7.43;;;8.10;99.90;;;;;;5034456;28;20204;-73
2023/05/12 04:25:58;;;;;;;9.25;6.78;;;8.10;99.90;;;;;;5034662;28;20217;-73
2023/05/12 04:28:25;;;;;;;8.55;5.90;;;8.00;99.90;;;;;;5034711;28;20201;-73
2023/05/12 04:30:53;;;;;;;9.23;8.20;;;8.00;99.90;;;;;;5034237;28;20201;-73
2023/05/12 04:33:20;;;;;;;10.30;8.32;;;8.10;99.90;;;;;;5034126;28;20198;-73
2023/05/12 04:35:47;;;;;;;7.82;7.03;;;8.00;99.90;;;;;;5034169;28;20229;-73
2023/05/12 04:38:13;;;;;;;6.70;6.10;;;8.00;99.90;;;;;;5033914;28;20209;-73
2023/05/12 04:40:40;;;;;;;12.93;9.70;;;8.10;99.90;;;;;;5033598;28;20688;-73
2023/05/12 04:43:07;;;;;;;9.98;7.90;;;8.20;99.90;;;;;;5033583;28;20209;-73
2023/05/12 04:45:33;;;;;;;7.85;7.05;;;8.20;99.90;;;;;;5033665;28;20205;-73
2023/05/12 04:48:01;;;;;;;10.25;7.40;;;8.20;99.90;;;;;;5033462;28;20296;-73
2023/05/12 04:50:28;;;;;;;6.85;6.15;;;8.20;99.90;;;;;;5033780;28;20201;-73
2023/05/12 04:52:55;;;;;;;6.18;5.57;;;8.20;99.90;;;;;;5033738;28;20208;-74
2023/05/12 04:55:22;;;;;;;6.28;5.57;;;8.30;99.90;;;;;;5033585;28;20212;-73
2023/05/12 04:57:48;;;;;;;5.15;4.75;;;8.30;99.90;;;;;;5033848;28;20221;-73
2023/05/12 05:00:15;;;;;;;5.03;4.63;;;8.40;99.90;;;;;;5033253;28;20205;-75
2023/05/12 05:02:42;;;;;;;4.35;3.95;;;8.40;99.90;;;;;;5033796;28;20201;-73
2023/05/12 05:05:10;;;;;;;4.22;3.92;;;8.50;99.90;;;;;;5033806;28;20205;-73
2023/05/12 05:07:37;;;;;;;3.33;3.13;;;8.60;99.90;;;;;;5033482;28;20217;-73
2023/05/12 07:54:06;;;;;;;1.00;1.00;;;25.10;57.40;;;;;;5931882;22;20248;-70
2023/05/12 07:56:33;;;;;;;1.02;1.02;;;23.70;46.20;;;;;;5014979;28;20229;-70
2023/05/12 07:59:00;;;;;;;1.45;1.40;;;22.70;42.50;;;;;;5015393;28;20209;-70
2023/05/12 08:01:26;;;;;;;1.10;1.10;;;22.20;43.10;;;;;;5015007;28;20208;-70
2023/05/12 08:03:53;;;;;;;0.90;0.90;;;21.60;44.10;;;;;;5014955;28;20224;-70
2023/05/12 08:06:20;;;;;;;1.40;1.17;;;21.20;47.10;;;;;;5015437;28;20204;-70
2023/05/12 08:08:46;;;;;;;0.98;0.98;;;20.80;49.10;;;;;;5014573;28;20723;-70
2023/05/12 08:11:14;;;;;;;1.30;1.00;;;20.50;47.90;;;;;;5015337;28;20202;-70
2023/05/12 08:13:41;;;;;;;1.23;1.23;;;20.00;49.50;;;;;;5014644;28;20636;-70
2023/05/12 08:16:08;;;;;;;0.90;0.90;;;19.80;48.40;;;;;;5015160;28;20608;-70
2023/05/12 08:18:34;;;;;;;0.40;0.40;;;19.40;50.80;;;;;;5014437;28;20210;-70
2023/05/12 08:21:01;;;;;;;1.30;0.90;;;19.20;51.40;;;;;;5014743;28;20202;-70
2023/05/12 08:23:28;;;;;;;0.98;0.70;;;19.20;51.70;;;;;;5014949;28;20770;-70
2023/05/12 08:25:55;;;;;;;1.17;0.70;;;18.90;50.20;;;;;;5015431;28;20571;-69
2023/05/12 08:28:23;;;;;;;0.60;0.60;;;18.80;56.40;;;;;;5015551;28;20248;-69
2023/05/12 08:30:49;;;;;;;0.50;0.50;;;18.70;58.70;;;;;;5017478;28;20656;-70
2023/05/12 08:33:16;;;;;;;0.47;0.47;;;18.50;55.80;;;;;;5015457;28;20206;-70
2023/05/12 08:35:43;;;;;;;0.50;0.50;;;18.30;60.00;;;;;;5014867;28;20209;-70
2023/05/12 08:38:10;;;;;;;1.33;0.90;;;18.30;58.80;;;;;;5015303;28;20217;-70
2023/05/12 08:40:47;;;;;;;0.65;0.65;;;18.30;61.00;;;;;;5018292;28;20229;-70
2023/05/12 08:43:28;;;;;;;0.63;0.63;;;18.10;55.70;;;;;;5016157;28;20300;-70
2023/05/12 08:45:57;;;;;;;0.47;0.47;;;17.30;61.50;;;;;;5014500;28;20213;-70
2023/05/12 08:48:26;;;;;;;0.43;0.43;;;17.20;66.80;;;;;;5014477;28;20197;-70
2023/05/12 08:50:53;;;;;;;1.02;0.70;;;17.10;78.10;;;;;;5014066;28;20661;-70
2023/05/12 08:53:21;;;;;;;1.65;0.70;;;17.20;76.00;;;;;;5014033;28;20708;-69
2023/05/12 08:55:49;;;;;;;0.70;0.70;;;17.40;69.80;;;;;;5013969;28;20628;-70
2023/05/12 08:58:16;;;;;;;0.70;0.65;;;17.60;64.00;;;;;;5014298;28;20210;-71
2023/05/12 09:00:44;;;;;;;0.40;0.40;;;17.50;63.80;;;;;;5016013;28;20240;-71
2023/05/12 09:03:13;;;;;;;0.50;0.50;;;17.60;71.40;;;;;;5015915;28;20201;-71
2023/05/12 09:05:41;;;;;;;0.60;0.60;;;17.60;69.80;;;;;;5016338;28;20224;-71
2023/05/12 09:08:10;;;;;;;0.50;0.50;;;17.40;67.80;;;;;;5015788;28;20201;-71
2023/05/12 09:10:37;;;;;;;0.60;0.60;;;17.30;76.60;;;;;;5013998;28;20723;-70
2023/05/12 09:13:13;;;;;;;0.60;0.60;;;17.30;76.60;;;;;;5013968;28;20225;-70
2023/05/12 09:15:44;;;;;;;0.52;0.52;;;17.30;72.30;;;;;;5013769;28;20193;-69
2023/05/12 09:18:12;;;;;;;1.75;0.50;;;17.40;76.90;;;;;;5013331;28;20205;-69
2023/05/12 09:20:39;;;;;;;0.70;0.70;;;17.60;71.10;;;;;;5013491;28;20209;-68
2023/05/12 09:23:16;;;;;;;0.50;0.50;;;17.60;74.10;;;;;;5013164;28;20669;-68
2023/05/12 09:25:43;;;;;;;0.65;0.65;;;17.30;69.60;;;;;;5013531;28;20231;-69
2023/05/12 09:28:10;;;;;;;0.40;0.40;;;17.30;71.60;;;;;;5013462;28;20197;-69
2023/05/12 09:30:37;;;;;;;0.55;0.55;;;17.30;74.60;;;;;;5015702;28;20198;-69
2023/05/12 09:33:08;;;;;;;0.40;0.40;;;17.20;72.60;;;;;;5017362;28;20283;-69
2023/05/12 09:35:40;;;;;;;0.50;0.50;;;17.20;71.40;;;;;;5017374;28;20209;-69
2023/05/12 09:38:08;;;;;;;0.45;0.45;;;17.00;76.90;;;;;;5017844;28;20205;-69
2023/05/12 09:40:35;;;;;;;0.68;0.60;;;17.00;81.80;;;;;;5017331;28;20213;-70
2023/05/12 09:43:02;;;;;;;0.80;0.80;;;17.10;79.80;;;;;;5017964;28;20208;-70
2023/05/12 09:45:29;;;;;;;1.35;0.80;;;17.10;75.30;;;;;;5017271;28;20236;-70
2023/05/12 09:47:56;;;;;;;0.40;0.40;;;17.00;69.30;;;;;;5017701;28;20197;-67
2023/05/12 09:50:23;;;;;;;0.65;0.50;;;16.90;74.60;;;;;;5017196;28;20229;-67
2023/05/12 09:52:51;;;;;;;0.75;0.57;;;16.80;75.10;;;;;;5017118;28;20208;-67
2023/05/12 09:55:18;;;;;;;0.50;0.50;;;16.60;67.20;;;;;;5016985;28;20248;-67
2023/05/12 09:57:45;;;;;;;0.80;0.80;;;16.40;74.30;;;;;;5016407;28;20217;-67
2023/05/12 10:00:16;;;;;;;1.15;0.88;;;16.00;91.60;;;;;;5016776;28;20201;-68
2023/05/12 10:02:43;;;;;;;2.13;1.60;;;15.60;99.90;;;;;;5016921;28;20194;-68
2023/05/12 10:05:15;;;;;;;1.85;1.75;;;15.20;99.90;;;;;;5016897;28;20233;-72
2023/05/12 10:07:43;;;;;;;2.25;1.60;;;14.90;99.90;;;;;;5016728;28;20210;-72
2023/05/12 10:10:15;;;;;;;1.45;1.20;;;14.50;99.90;;;;;;5016868;28;20205;-72
2023/05/12 10:12:42;;;;;;;2.22;1.70;;;14.10;99.90;;;;;;5016826;28;20201;-72
2023/05/12 10:15:10;;;;;;;1.20;1.20;;;13.70;99.90;;;;;;5016785;28;20226;-74
2023/05/12 10:17:37;;;;;;;1.00;1.00;;;13.30;99.90;;;;;;5017043;28;20218;-71
2023/05/12 10:20:05;;;;;;;2.15;1.00;;;13.00;99.90;;;;;;5016878;28;20322;-71
2023/05/12 10:22:33;;;;;;;1.67;1.00;;;12.70;99.90;;;;;;5016803;28;20233;-71
2023/05/12 10:25:01;;;;;;;1.17;1.17;;;12.70;99.90;;;;;;5016643;28;20222;-71
2023/05/12 10:27:29;;;;;;;0.90;0.85;;;12.70;99.90;;;;;;5016515;28;20277;-70
2023/05/12 10:29:56;;;;;;;1.02;0.80;;;12.90;99.90;;;;;;5016504;28;20198;-70
2023/05/12 10:32:23;;;;;;;0.80;0.80;;;13.20;99.90;;;;;;5016467;28;20214;-71
2023/05/12 10:34:50;;;;;;;2.83;0.90;;;13.50;99.90;;;;;;5016311;28;20230;-71
2023/05/12 10:37:17;;;;;;;0.70;0.70;;;13.90;99.90;;;;;;5016562;28;20304;-71
2023/05/12 10:39:48;;;;;;;0.55;0.55;;;14.30;99.90;;;;;;5016340;28;20256;-71
2023/05/12 10:42:21;;;;;;;0.63;0.63;;;14.70;99.90;;;;;;5015937;28;20213;-71
2023/05/12 10:44:51;;;;;;;0.80;0.60;;;15.00;99.90;;;;;;5016589;28;20229;-72
2023/05/12 10:47:19;;;;;;;0.60;0.60;;;15.40;99.90;;;;;;5016274;28;20741;-72
2023/05/12 10:49:45;;;;;;;1.92;0.55;;;15.60;99.90;;;;;;5016488;28;20252;-72
2023/05/12 10:52:12;;;;;;;1.30;0.60;;;15.80;99.90;;;;;;5016348;28;20202;-72
2023/05/12 10:54:43;;;;;;;2.15;0.75;;;15.70;99.90;;;;;;5016965;28;20712;-70
2023/05/12 10:57:13;;;;;;;0.82;0.82;;;15.70;99.90;;;;;;5015734;28;20685;-70
2023/05/12 10:59:48;;;;;;;0.80;0.80;;;15.70;99.90;;;;;;5016366;28;20197;-71
2023/05/12 11:02:18;;;;;;;0.65;0.65;;;15.70;99.90;;;;;;5016846;28;20550;-71
2023/05/12 11:04:48;;;;;;;0.70;0.70;;;15.70;99.90;;;;;;5015929;28;20221;-71
2023/05/12 11:07:16;;;;;;;1.27;1.10;;;15.80;99.90;;;;;;5015991;28;20189;-71
2023/05/12 11:09:44;;;;;;;0.80;0.80;;;15.70;99.90;;;;;;5015936;28;20316;-71
2023/05/12 11:12:11;;;;;;;0.77;0.77;;;15.50;99.90;;;;;;5016280;28;20228;-71
2023/05/12 11:14:40;;;;;;;1.75;0.95;;;15.30;99.90;;;;;;5015707;28;20254;-70
2023/05/12 11:17:08;;;;;;;1.40;1.20;;;15.00;99.90;;;;;;5015743;28;20213;-71
2023/05/12 11:19:37;;;;;;;1.50;1.00;;;14.70;99.90;;;;;;5015753;28;20198;-71
2023/05/12 11:22:06;;;;;;;0.95;0.90;;;14.50;99.90;;;;;;5015711;28;20237;-71
2023/05/12 11:24:33;;;;;;;1.15;0.95;;;14.20;99.90;;;;;;5015328;28;20716;-69
2023/05/12 11:26:59;;;;;;;0.80;0.80;;;14.00;99.90;;;;;;5015634;28;20209;-71
2023/05/12 11:29:26;;;;;;;1.65;0.68;;;13.90;99.90;;;;;;5015622;28;20202;-71
2023/05/12 11:31:53;;;;;;;0.73;0.73;;;13.80;99.90;;;;;;5015509;28;20216;-70
2023/05/12 11:34:23;;;;;;;2.08;0.90;;;13.70;99.90;;;;;;5015138;28;20632;-72
2023/05/12 11:36:55;;;;;;;1.08;1.08;;;13.70;99.90;;;;;;5015183;28;20296;-71
2023/05/12 11:39:23;;;;;;;1.10;1.10;;;13.60;99.90;;;;;;5015495;28;20257;-71
2023/05/12 11:41:51;;;;;;;1.13;1.10;;;13.70;99.90;;;;;;5015197;28;20589;-70
2023/05/12 11:44:19;;;;;;;0.80;0.80;;;13.70;99.90;;;;;;5015589;28;20222;-70
2023/05/12 11:46:57;;;;;;;0.70;0.70;;;13.70;99.90;;;;;;5015208;28;20206;-71
2023/05/12 11:49:23;;;;;;;0.68;0.68;;;14.00;99.90;;;;;;5015397;28;20201;-70
2023/05/12 11:51:53;;;;;;;0.65;0.65;;;14.10;99.90;;;;;;5014997;28;20197;-69
2023/05/12 11:54:21;;;;;;;0.50;0.50;;;14.00;99.90;;;;;;5014010;28;20217;-70
2023/05/12 11:56:49;;;;;;;0.73;0.73;;;14.10;99.90;;;;;;5015248;28;20210;-70
2023/05/12 11:59:27;;;;;;;1.23;0.80;;;14.20;99.90;;;;;;5015261;28;20257;-70
2023/05/12 12:01:54;;;;;;;0.80;0.80;;;14.30;99.90;;;;;;5015171;28;20233;-70
2023/05/12 12:04:32;;;;;;;1.05;0.50;;;14.60;99.90;;;;;;5015092;28;20224;-70
2023/05/12 12:07:00;;;;;;;0.65;0.65;;;15.00;99.90;;;;;;5015369;28;20229;-70
2023/05/12 12:09:39;;;;;;;0.60;0.60;;;15.30;99.90;;;;;;5015176;28;20237;-70
2023/05/12 12:12:08;;;;;;;0.52;0.52;;;15.60;99.90;;;;;;5014998;28;20280;-71
2023/05/12 12:14:36;;;;;;;0.50;0.50;;;15.90;99.90;;;;;;5014663;28;20229;-71
2023/05/12 12:17:04;;;;;;;0.40;0.40;;;16.10;99.90;;;;;;5014707;28;20205;-71
2023/05/12 12:19:30;;;;;;;0.60;0.50;;;16.40;99.90;;;;;;5014757;28;20221;-71
2023/05/12 12:21:59;;;;;;;1.85;0.45;;;16.70;99.90;;;;;;5014626;28;20202;-71
2023/05/12 12:24:26;;;;;;;0.40;0.40;;;16.90;99.90;;;;;;5014657;28;20597;-71
2023/05/12 12:26:53;;;;;;;0.85;0.60;;;16.90;99.90;;;;;;5014519;28;20201;-71
2023/05/12 12:29:19;;;;;;;0.50;0.50;;;16.80;99.90;;;;;;5014176;28;20776;-71
2023/05/12 12:31:46;;;;;;;0.32;0.32;;;16.80;99.90;;;;;;5014544;28;20201;-71
2023/05/12 12:34:13;;;;;;;0.50;0.50;;;16.70;99.90;;;;;;5014333;28;20308;-69
2023/05/12 12:36:40;;;;;;;1.85;0.70;;;16.30;99.90;;;;;;5014030;28;20577;-70
2023/05/12 12:39:09;;;;;;;0.82;0.70;;;16.00;99.90;;;;;;5014177;28;20301;-70
2023/05/12 12:41:36;;;;;;;0.80;0.60;;;15.50;99.90;;;;;;5014328;28;20281;-72
2023/05/12 12:44:03;;;;;;;3.40;0.70;;;15.30;99.90;;;;;;5014106;28;20617;-71
2023/05/12 12:46:29;;;;;;;0.60;0.60;;;15.10;99.90;;;;;;5014174;28;20657;-71
2023/05/12 12:48:57;;;;;;;2.10;0.70;;;15.10;99.90;;;;;;5013759;28;20665;-70
2023/05/12 12:51:24;;;;;;;0.60;0.60;;;15.10;99.90;;;;;;5014168;28;20216;-70
2023/05/12 12:53:51;;;;;;;0.40;0.40;;;15.00;99.90;;;;;;5014123;28;20217;-70
2023/05/12 12:56:20;;;;;;;0.50;0.50;;;15.00;99.90;;;;;;5013946;28;20205;-70
2023/05/12 12:58:47;;;;;;;0.73;0.50;;;14.90;99.90;;;;;;5014480;28;20221;-70
2023/05/12 13:01:14;;;;;;;0.40;0.40;;;14.90;99.90;;;;;;5013883;28;20209;-72
2023/05/12 13:03:40;;;;;;;0.45;0.45;;;15.00;99.90;;;;;;5013766;28;20225;-72
2023/05/12 13:06:08;;;;;;;0.40;0.40;;;15.00;99.90;;;;;;5013291;28;20673;-71
2023/05/12 13:08:34;;;;;;;0.43;0.43;;;15.00;99.90;;;;;;5013613;28;20202;-72
2023/05/12 13:11:01;;;;;;;0.40;0.40;;;15.00;99.90;;;;;;5013774;28;20209;-71
2023/05/12 13:13:29;;;;;;;0.50;0.50;;;15.10;99.90;;;;;;5013789;28;20222;-71
2023/05/12 13:15:57;;;;;;;0.47;0.47;;;15.20;99.90;;;;;;5013367;28;20674;-71
2023/05/12 13:18:24;;;;;;;0.40;0.40;;;15.30;99.90;;;;;;5013633;28;20232;-71
2023/05/12 13:20:51;;;;;;;0.50;0.50;;;15.50;99.90;;;;;;5013442;28;20208;-71
2023/05/12 13:23:18;;;;;;;0.60;0.60;;;15.50;99.90;;;;;;5013531;28;20237;-71
2023/05/12 13:25:45;;;;;;;0.63;0.63;;;15.50;99.90;;;;;;5013266;28;20677;-71
2023/05/12 13:28:11;;;;;;;0.52;0.40;;;15.70;99.90;;;;;;5013315;28;20178;-70
2023/05/12 13:30:40;;;;;;;0.52;0.52;;;15.70;99.90;;;;;;5013583;28;20206;-70
2023/05/12 13:33:06;;;;;;;0.55;0.55;;;15.80;99.90;;;;;;5013489;28;20209;-73
2023/05/12 13:35:33;;;;;;;0.45;0.45;;;15.90;99.90;;;;;;5013330;28;20569;-74
2023/05/12 13:38:00;;;;;;;0.40;0.40;;;15.90;99.90;;;;;;5013555;28;20260;-74
2023/05/12 13:40:27;;;;;;;0.40;0.40;;;16.00;99.90;;;;;;5013649;28;20186;-74
2023/05/12 13:42:53;;;;;;;0.50;0.50;;;16.20;99.90;;;;;;5013646;28;20198;-73
2023/05/12 13:45:20;;;;;;;0.32;0.32;;;16.40;99.90;;;;;;5013624;28;20316;-74
2023/05/12 13:47:48;;;;;;;0.60;0.60;;;16.60;99.90;;;;;;5013172;28;20683;-73
2023/05/12 13:50:15;;;;;;;0.57;0.57;;;16.60;99.90;;;;;;5014225;28;20240;-74
2023/05/12 13:52:42;;;;;;;0.40;0.40;;;16.50;99.90;;;;;;5013366;28;20206;-74
2023/05/12 13:55:09;;;;;;;0.55;0.55;;;16.60;99.90;;;;;;5014015;28;20230;-73
2023/05/12 13:57:36;;;;;;;0.40;0.40;;;16.60;99.90;;;;;;5013336;28;20205;-74
2023/05/12 14:00:03;;;;;;;0.45;0.45;;;16.70;99.90;;;;;;5013265;28;20218;-74
2023/05/12 14:02:30;;;;;;;0.50;0.50;;;16.60;99.90;;;;;;5013188;28;20621;-74
2023/05/12 14:04:58;;;;;;;0.60;0.60;;;16.40;99.90;;;;;;5013121;28;20249;-74
2023/05/12 14:07:25;;;;;;;1.00;1.00;;;16.20;99.90;;;;;;5013265;28;20211;-74
2023/05/12 14:09:52;;;;;;;1.08;0.98;;;16.00;99.90;;;;;;5013251;28;20201;-74
2023/05/12 14:12:18;;;;;;;1.20;1.10;;;15.70;99.90;;;;;;5012905;28;20198;-74
2023/05/12 14:14:48;;;;;;;1.40;0.98;;;15.50;99.90;;;;;;5012734;28;20709;-74
2023/05/12 14:17:15;;;;;;;0.80;0.80;;;15.30;99.90;;;;;;5014921;28;20198;-74
2023/05/12 14:19:42;;;;;;;1.38;0.90;;;15.10;99.90;;;;;;5016728;28;20222;-73
2023/05/12 14:22:10;;;;;;;3.15;1.88;;;14.90;99.90;;;;;;5016877;28;20692;-71
2023/05/12 14:24:37;;;;;;;2.35;1.85;;;14.70;99.90;;;;;;5016450;28;20725;-71
2023/05/12 14:27:04;;;;;;;2.03;1.55;;;14.60;99.90;;;;;;5016870;28;20210;-71
2023/05/12 14:29:30;;;;;;;1.83;1.55;;;14.50;99.90;;;;;;5017016;28;20206;-71
2023/05/12 14:31:58;;;;;;;1.25;1.15;;;14.50;99.90;;;;;;5017325;28;20588;-71
2023/05/12 14:34:25;;;;;;;0.90;0.90;;;14.60;99.90;;;;;;5016422;28;20222;-71
2023/05/12 14:36:52;;;;;;;0.80;0.80;;;14.60;99.90;;;;;;5016629;28;20202;-71
2023/05/12 14:39:20;;;;;;;1.02;1.02;;;14.70;99.90;;;;;;5015935;28;20701;-71
2023/05/12 14:41:47;;;;;;;1.63;0.98;;;14.70;99.90;;;;;;5016348;28;20202;-71
2023/05/12 14:44:14;;;;;;;1.17;0.70;;;14.60;99.90;;;;;;5015952;28;20222;-71
2023/05/12 14:46:40;;;;;;;0.70;0.70;;;14.50;99.90;;;;;;5016493;28;20613;-71
2023/05/12 14:49:09;;;;;;;0.90;0.90;;;14.40;99.90;;;;;;5016347;28;20205;-71
2023/05/12 14:51:37;;;;;;;0.70;0.70;;;14.30;99.90;;;;;;5016453;28;20256;-72
2023/05/12 14:54:03;;;;;;;1.70;1.05;;;14.10;99.90;;;;;;5016587;28;20229;-72
2023/05/12 14:56:32;;;;;;;0.88;0.82;;;14.10;99.90;;;;;;5015867;28;20676;-72
2023/05/12 14:58:59;;;;;;;1.13;1.13;;;14.10;99.90;;;;;;5015926;28;20217;-72
2023/05/12 15:01:26;;;;;;;2.00;1.90;;;14.00;99.90;;;;;;5015965;28;20194;-70
2023/05/12 15:03:53;;;;;;;3.03;1.80;;;14.00;99.90;;;;;;5016089;28;20229;-69
2023/05/12 15:06:20;;;;;;;2.25;1.50;;;14.00;99.90;;;;;;5015902;28;20241;-70
2023/05/12 15:08:46;;;;;;;0.90;0.90;;;14.10;99.90;;;;;;5015884;28;20213;-71
2023/05/12 15:11:13;;;;;;;1.20;0.98;;;14.20;99.90;;;;;;5016003;28;20202;-71
2023/05/12 15:13:41;;;;;;;0.90;0.90;;;14.30;99.90;;;;;;5015578;28;20226;-71
2023/05/12 15:16:08;;;;;;;0.80;0.80;;;14.40;99.90;;;;;;5015836;28;20207;-70
2023/05/12 15:18:35;;;;;;;0.80;0.80;;;14.50;99.90;;;;;;5015268;28;20689;-71
2023/05/12 15:21:01;;;;;;;1.20;1.10;;;14.60;99.90;;;;;;5016108;28;20206;-70
2023/05/12 15:23:28;;;;;;;0.93;0.90;;;14.60;99.90;;;;;;5015273;28;20229;-70
2023/05/12 15:25:55;;;;;;;0.90;0.90;;;14.70;99.90;;;;;;5015824;28;20280;-70
2023/05/12 15:28:21;;;;;;;0.77;0.77;;;15.00;99.90;;;;;;5015500;28;20217;-70
2023/05/12 15:30:56;;;;;;;0.95;0.95;;;15.20;99.90;;;;;;5015942;28;20209;-71
2023/05/12 15:33:23;;;;;;;1.00;1.00;;;15.20;99.90;;;;;;5016086;28;20248;-71
2023/05/12 15:35:49;;;;;;;1.15;1.00;;;15.30;99.90;;;;;;5015700;28;20209;-71
2023/05/12 15:38:16;;;;;;;0.80;0.80;;;15.20;99.90;;;;;;5015441;28;20206;-70
2023/05/12 15:40:43;;;;;;;1.08;1.08;;;15.10;99.90;;;;;;5015162;28;20316;-71
2023/05/12 15:43:10;;;;;;;1.35;1.25;;;14.90;99.90;;;;;;5015478;28;20225;-70
2023/05/12 15:45:37;;;;;;;0.70;0.70;;;14.90;99.90;;;;;;5015343;28;20201;-71
2023/05/12 15:48:05;;;;;;;2.47;0.95;;;14.80;99.90;;;;;;5015323;28;20228;-72
2023/05/12 15:50:32;;;;;;;1.00;1.00;;;14.70;99.90;;;;;;5015068;28;20198;-72
2023/05/12 15:52:59;;;;;;;0.85;0.85;;;14.70;99.90;;;;;;5015313;28;20202;-72
2023/05/12 15:55:25;;;;;;;0.50;0.50;;;14.80;99.90;;;;;;5015248;28;20206;-71
2023/05/12 15:57:52;;;;;;;0.73;0.60;;;14.70;99.90;;;;;;5014977;28;20217;-72
2023/05/12 17:59:27;;;;;;;1.50;1.50;;;12.70;99.90;;;;;;5352934;23;20237;-73
2023/05/12 18:01:54;;;;;;;1.95;1.85;;;12.60;99.90;;;;;;5036793;28;20213;-73
2023/05/12 18:04:21;;;;;;;1.98;1.85;;;12.60;99.90;;;;;;5036853;28;20209;-72
2023/05/12 18:06:49;;;;;;;2.08;1.83;;;12.50;99.90;;;;;;5036657;28;20206;-73
2023/05/12 18:09:16;;;;;;;1.77;1.73;;;12.40;99.90;;;;;;5036648;28;20579;-73
2023/05/12 18:11:43;;;;;;;2.28;2.17;;;12.40;99.90;;;;;;5036785;28;20201;-73
2023/05/12 18:14:10;;;;;;;2.13;2.03;;;12.30;99.90;;;;;;5060411;22;20344;-76
2023/05/12 18:16:38;;;;;;;2.20;2.10;;;12.20;99.90;;;;;;5036747;28;20204;-75
2023/05/12 18:19:05;;;;;;;2.40;2.30;;;12.20;99.90;;;;;;5036671;28;20225;-75
2023/05/12 18:21:32;;;;;;;3.83;2.05;;;12.10;99.90;;;;;;5036554;28;20202;-75
2023/05/12 18:23:59;;;;;;;3.70;2.38;;;12.10;99.90;;;;;;5036208;28;20263;-75
2023/05/12 18:26:26;;;;;;;2.40;2.22;;;12.00;99.90;;;;;;5036603;28;20208;-74
2023/05/12 18:28:53;;;;;;;2.53;2.38;;;12.00;99.90;;;;;;5036356;28;20275;-75
2023/05/12 18:31:20;;;;;;;3.28;2.50;;;11.90;99.90;;;;;;5037236;28;20220;-75
2023/05/12 18:33:48;;;;;;;2.30;2.20;;;11.90;99.90;;;;;;5036180;28;20644;-74
2023/05/12 18:36:15;;;;;;;2.10;2.00;;;11.80;99.90;;;;;;5035957;28;20201;-74
2023/05/12 18:38:42;;;;;;;2.60;2.40;;;11.80;99.90;;;;;;5036274;28;20260;-75
2023/05/12 18:41:09;;;;;;;2.10;2.00;;;11.70;99.90;;;;;;5036264;28;20224;-77
2023/05/12 18:43:36;;;;;;;2.30;2.20;;;11.70;99.90;;;;;;5038092;28;20233;-78
2023/05/12 18:46:03;;;;;;;2.03;1.92;;;11.60;99.90;;;;;;5039251;28;20580;-79
2023/05/12 18:48:29;;;;;;;2.25;2.08;;;11.60;99.90;;;;;;5040388;28;20292;-78
2023/05/12 18:50:58;;;;;;;2.35;2.28;;;11.50;99.90;;;;;;5039915;28;20284;-78
2023/05/12 18:53:24;;;;;;;2.63;2.53;;;11.50;99.90;;;;;;5039615;28;20229;-79
2023/05/12 18:55:51;;;;;;;2.78;2.58;;;11.40;99.90;;;;;;5039073;28;20208;-78
2023/05/12 18:58:18;;;;;;;2.47;2.38;;;11.40;99.90;;;;;;5040364;28;20193;-78
2023/05/12 19:00:45;;;;;;;3.47;3.17;;;11.30;99.90;;;;;;5039798;28;20229;-79
2023/05/12 19:03:12;;;;;;;3.42;3.13;;;11.30;99.90;;;;;;5038929;28;20723;-79
2023/05/12 19:05:41;;;;;;;4.43;2.80;;;11.20;99.90;;;;;;5039345;28;20205;-79
2023/05/12 19:08:10;;;;;;;3.40;3.20;;;11.20;99.90;;;;;;5039282;28;20665;-79
2023/05/12 19:10:36;;;;;;;4.97;2.92;;;11.10;99.90;;;;;;5039291;28;20553;-79
2023/05/12 19:13:03;;;;;;;3.13;2.92;;;11.00;99.90;;;;;;5039007;28;20233;-79
2023/05/12 19:15:30;;;;;;;3.92;3.63;;;11.00;99.90;;;;;;5039723;28;20576;-79
2023/05/12 19:17:57;;;;;;;3.72;3.40;;;11.00;99.90;;;;;;5039294;28;20216;-79
2023/05/12 19:20:24;;;;;;;4.50;4.10;;;10.90;99.90;;;;;;5042991;28;20695;-79
2023/05/12 19:22:50;;;;;;;3.88;3.55;;;10.80;99.90;;;;;;5043781;28;20225;-79
2023/05/12 19:25:19;;;;;;;3.83;3.53;;;10.80;99.90;;;;;;5041965;28;20197;-79
2023/05/12 19:27:46;;;;;;;4.07;3.67;;;10.70;99.90;;;;;;5039711;28;20201;-79
2023/05/12 19:30:14;;;;;;;3.97;3.67;;;10.70;99.90;;;;;;5039611;28;20202;-79
2023/05/12 19:32:41;;;;;;;4.60;4.13;;;10.70;99.90;;;;;;5039062;28;20253;-78
2023/05/12 19:35:09;;;;;;;2.92;2.80;;;10.60;99.90;;;;;;5039225;28;20201;-78
2023/05/12 19:37:36;;;;;;;3.08;2.97;;;10.60;99.90;;;;;;5039026;28;20263;-78
2023/05/12 19:40:03;;;;;;;3.10;2.90;;;10.50;99.90;;;;;;5038371;28;20225;-78
2023/05/12 19:42:33;;;;;;;3.15;2.95;;;10.50;99.90;;;;;;5038404;28;20221;-78
2023/05/12 19:45:00;;;;;;;3.00;2.83;;;10.40;99.90;;;;;;5037251;28;20212;-78
2023/05/12 19:47:27;;;;;;;3.63;3.35;;;10.40;99.90;;;;;;5037432;28;20225;-79
2023/05/12 19:49:54;;;;;;;3.65;3.35;;;10.40;99.90;;;;;;5038966;28;20205;-79
2023/05/12 19:52:23;;;;;;;3.20;3.00;;;10.30;99.90;;;;;;5039521;28;20239;-79
2023/05/12 19:54:50;;;;;;;3.45;3.13;;;10.30;99.90;;;;;;5041223;28;20296;-79
2023/05/12 19:57:17;;;;;;;3.13;3.03;;;10.30;99.90;;;;;;5045726;28;20205;-78
2023/05/12 19:59:45;;;;;;;3.00;2.88;;;10.20;99.90;;;;;;5047816;28;20221;-78
2023/05/12 20:02:14;;;;;;;3.45;3.15;;;10.20;99.90;;;;;;5047524;28;20653;-77
2023/05/12 20:04:41;;;;;;;6.85;5.07;;;10.20;99.90;;;;;;5047867;28;20205;-78
2023/05/12 20:07:08;;;;;;;3.88;3.58;;;10.20;99.90;;;;;;5035902;28;20205;-74
2023/05/12 20:09:35;;;;;;;3.30;3.10;;;10.10;99.90;;;;;;5035365;28;20228;-77
2023/05/12 20:12:02;;;;;;;3.58;3.28;;;10.00;99.90;;;;;;5035714;28;20205;-75
2023/05/12 20:14:28;;;;;;;3.03;2.83;;;10.00;99.90;;;;;;5033967;28;20205;-77
2023/05/12 20:16:57;;;;;;;3.42;3.22;;;9.90;99.90;;;;;;5037317;28;20201;-76
2023/05/12 20:19:26;;;;;;;3.63;3.33;;;9.90;99.90;;;;;;5034871;28;20197;-75
2023/05/12 20:21:53;;;;;;;3.22;3.03;;;9.80;99.90;;;;;;5034995;28;20668;-75
2023/05/12 20:24:19;;;;;;;4.00;3.70;;;9.80;99.90;;;;;;5034327;28;20221;-75
2023/05/12 20:26:46;;;;;;;4.15;3.88;;;9.80;99.90;;;;;;5034787;28;20206;-76
2023/05/12 20:29:19;;;;;;;4.10;3.80;;;9.80;99.90;;;;;;5034963;28;20204;-74
2023/05/12 20:31:46;;;;;;;4.20;3.90;;;9.80;99.90;;;;;;5035411;28;20193;-75
2023/05/12 20:34:14;;;;;;;3.15;2.95;;;9.70;99.90;;;;;;5034529;28;20225;-75
2023/05/12 20:36:42;;;;;;;3.50;3.28;;;9.70;99.90;;;;;;5034771;28;20205;-75
2023/05/12 20:39:09;;;;;;;4.85;3.72;;;9.70;99.90;;;;;;5033961;28;20607;-75
2023/05/12 20:41:36;;;;;;;4.68;4.15;;;9.70;99.90;;;;;;5034021;28;20588;-76
2023/05/12 20:44:03;;;;;;;3.83;3.47;;;9.70;99.90;;;;;;5033932;28;20221;-76
2023/05/12 20:46:30;;;;;;;3.10;2.88;;;9.70;99.90;;;;;;5034211;28;20207;-74
2023/05/12 20:48:57;;;;;;;3.25;3.05;;;9.70;99.90;;;;;;5034796;28;20225;-76
2023/05/12 20:51:25;;;;;;;3.00;2.80;;;9.80;99.90;;;;;;5033949;28;20193;-77
2023/05/12 20:53:52;;;;;;;4.13;3.75;;;9.80;99.90;;;;;;5034341;28;20221;-77
2023/05/12 20:56:21;;;;;;;3.40;3.20;;;9.90;99.90;;;;;;5035137;28;20206;-77
2023/05/12 20:58:48;;;;;;;3.90;3.60;;;9.90;99.90;;;;;;5036946;28;20197;-76
2023/05/12 21:01:15;;;;;;;4.60;4.20;;;10.00;99.90;;;;;;5037642;28;20380;-77
2023/05/12 21:03:42;;;;;;;4.30;4.00;;;10.00;99.90;;;;;;5035510;28;20295;-76
2023/05/12 21:06:10;;;;;;;3.90;3.55;;;10.00;99.90;;;;;;5034368;28;20201;-76
2023/05/12 21:08:39;;;;;;;3.95;3.65;;;9.90;99.90;;;;;;5034585;28;20205;-77
2023/05/12 21:11:13;;;;;;;3.45;3.25;;;9.90;99.90;;;;;;5033752;28;20209;-77
2023/05/12 21:13:40;;;;;;;3.63;3.30;;;9.90;99.90;;;;;;5033710;28;20737;-77
2023/05/12 21:16:06;;;;;;;3.65;3.35;;;9.90;99.90;;;;;;5033850;28;20197;-77
2023/05/12 21:18:33;;;;;;;3.40;3.20;;;10.00;99.90;;;;;;5033823;28;20206;-77
2023/05/12 21:21:00;;;;;;;4.30;4.00;;;10.00;99.90;;;;;;5033967;28;20229;-74
2023/05/12 21:23:26;;;;;;;4.47;4.15;;;10.00;99.90;;;;;;5033817;28;20244;-74
2023/05/12 21:25:54;;;;;;;4.13;3.83;;;10.00;99.90;;;;;;5033266;28;20209;-74
2023/05/12 21:28:21;;;;;;;4.95;4.55;;;10.10;99.90;;;;;;5033506;28;20205;-74